Tiempo atmosférico en la estación meteorológica de Barcelona, Barcelona (25 m.)



Fecha
DESCASC
Temp. máxima en grados centígrados (hora)
DESCASC
Temp. mínima en grados centígrados (hora)
DESCASC
Temp. media en grados centígrados
DESCASC
Racha de viento máxima en m/sg (hora)
DESCASC
Velocidad máxima media en intervalos de 10 minutos(hora)
DESCASC
Precipitaciones diarias en mm
DESCASC
Precipitaciones de 00:00 a 06:00 en mm
DESCASC
Precipitaciones de 06:00 a 12:00 en mm
DESCASC
Precipitaciones de 12:00 a 18:00 en mm
DESCASC
Precipitaciones de 18:00 a 24:00 en mm
DESCASC
18-08-2019 28.7 (10:50) 22.6 (06:30) 25.7 9.44 (15:50) 8.33 (15:50) 0 0 0 0 0
17-08-2019 28 (17:40) 23.4 (04:10) 25.7 10 (17:30) 7.78 (16:10) 0 0 0 0 0
16-08-2019 27.7 (17:10) 22.5 (09:20) 25.1 11.39 (19:20) 6.39 (17:20) 5.4 4.5 0.9 0 0
15-08-2019 28.3 (13:10) 22.2 (00:00) 25.3 12.5 (22:00) 7.78 (16:50) 0 0 0 0 0
14-08-2019 26.5 (17:30) 20.7 (00:00) 23.6 16.39 (15:20) 7.22 (06:00) 0 0 0 0 0
13-08-2019 26.1 (17:10) 20.6 (00:00) 23.4 15 (20:00) 8.89 (17:00) 0 0 0 0 0
12-08-2019 27.4 (13:20) 20.8 (00:00) 24.1 9.44 (04:00) 7.5 (04:00) 17.4 17.4 0 0 0
11-08-2019 28.6 (14:00) 24.1 (00:00) 26.4 12.22 (22:20) 10.56 (22:20) 0 0 0 0 0
10-08-2019 29.5 (15:00) 25.2 (00:00) 27.4 10.28 (04:50) 8.61 (04:40) 0 0 0 0 0
09-08-2019 29.2 (19:30) 25.1 (00:00) 27.2 8.61 (17:30) 7.5 (17:40) 0 0 0 0 0
08-08-2019 28.8 (19:20) 25.2 (00:00) 27 10 (15:50) 7.5 (12:30) 0 0 0 0 0
07-08-2019 28.3 (12:40) 24.5 (00:00) 26.4 6.67 (11:10) 5.83 (11:10) 0 0 0 0 0
06-08-2019 29.1 (14:50) 23.8 (00:00) 26.4 6.67 (09:30) 5 (10:50) 0 0 0 0 0
05-08-2019 30.9 (11:40) 24 (00:00) 27.4 6.39 (14:00) 5.28 (14:00) 0 0 0 0 0
04-08-2019 29.3 (19:20) 23.6 (00:00) 26.4 8.89 (14:50) 7.5 (16:40) 0 0 0 0 0
03-08-2019 30.1 (11:40) 23.6 (00:00) 26.9 10.83 (15:20) 9.17 (15:20) 0 0 0 0 0
02-08-2019 29.9 (11:20) 22.7 (00:00) 26.3 9.17 (15:40) 7.22 (00:30) 0 0 0 0 0
01-08-2019 27.7 (13:50) 22.1 (00:00) 24.9 10.83 (10:00) 8.61 (09:50) 0 0 0 0 0
31-07-2019 26 (15:50) 23.3 (00:00) 24.6 7.5 (11:20) 6.11 (11:50) 0 0 0 0 0
30-07-2019 27.7 (10:50) 24.1 (00:00) 25.9 8.89 (14:50) 6.39 (14:50) 0 0 0 0 0
29-07-2019 27 (19:50) 20.9 (00:00) 23.9 10.56 (15:30) 8.33 (15:10) 0 0 0 0 0
28-07-2019 26.5 (16:10) 19.4 (00:00) 22.9 10 (00:10) 6.67 (00:10) 0 0 0 0 0
27-07-2019 26 (00:10) 18.7 (00:00) 22.4 14.72 (12:50) 9.44 (23:50) 38.5 0 0 38.5 0
26-07-2019 30 (12:30) 24.2 (00:00) 27.1 8.33 (13:30) 6.67 (23:00) 0 0 0 0 0
25-07-2019 29.4 (13:30) 23.4 (00:00) 26.4 5.83 (15:20) 3.61 (14:20) 0 0 0 0 0
24-07-2019 29.4 (14:10) 23.3 (00:00) 26.3 6.11 (15:30) 4.44 (12:10) 0 0 0 0 0
23-07-2019 30 (11:30) 23.5 (00:00) 26.8 9.44 (16:10) 7.5 (16:10) 0 0 0 0 0
22-07-2019 29.6 (14:30) 23.1 (00:00) 26.4 5.28 (15:30) 3.61 (11:50) 0 0 0 0 0
21-07-2019 28.3 (15:30) 22.6 (00:00) 25.4 6.11 (11:30) 5.28 (11:30) 0 0 0 0 0

Gráficas

Temp. máximas Temp. mínimas Temp. medias Precipitaciones Rachas de viento máximas Velocidades máximas media en intervalos de 10 minutos

Datos horarios

Fecha y hora oficial Temperatura (ºC) Velocidad del viento (km/h) Dirección del viento Racha (km/h) Dirección de racha Precipitación (mm) Presión (hPa) Tendencia (hPa) Humedad (%)
2019-08-19 23:00:00 24 33 Este 39 Este 0 -- -- 78
2019-08-19 22:00:00 23.9 34 Este 41 Este 0 -- -- 78
2019-08-19 21:00:00 23.8 33 Este 41 Este 0 -- -- 81
2019-08-19 20:00:00 24.1 33 Este 38 Este 0 -- -- 83
2019-08-19 19:00:00 24.6 32 Este 40 Este 0 -- -- 80
2019-08-19 18:00:00 25.3 32 Este 40 Este 0 -- -- 75
2019-08-19 17:00:00 25.5 33 Este 38 Este 0 -- -- 71
2019-08-19 16:00:00 25.9 28 Este 35 Este 0 -- -- 71
2019-08-19 15:00:00 25.9 30 Este 35 Este 0 -- -- 74
2019-08-19 14:00:00 25.9 30 Este 35 Este 0 -- -- 75
2019-08-19 13:00:00 25.9 24 Este 30 Este 0 -- -- 78
2019-08-19 12:00:00 26.1 23 Este 34 Este 0 -- -- 76
2019-08-19 11:00:00 25.8 28 Este 37 Este 0 -- -- 81
2019-08-19 10:00:00 24.9 32 Este 40 Este 0 -- -- 88
2019-08-19 09:00:00 24.8 10 Nordeste 22 Sudeste 0 -- -- 85
2019-08-19 08:00:00 24.4 15 Este 32 Este 0 -- -- 90
2019-08-19 07:00:00 24.1 23 Este 30 Este 0 -- -- 93
2019-08-19 06:00:00 24.2 26 Este 32 Este 0 -- -- 93
2019-08-19 05:00:00 24.8 6 Nordeste 16 Nordeste 0 -- -- 88
2019-08-19 04:00:00 24.7 8 Nordeste 14 Nordeste 0 -- -- 90
2019-08-19 03:00:00 24.8 3 Nordeste 16 Este 0 -- -- 93
2019-08-19 02:00:00 24.9 9 Este 16 Este 0 -- -- 89
2019-08-19 01:00:00 25.1 9 Nordeste 13 Este 0 -- -- 91
2019-08-19 00:00:00 25.2 9 Este 14 Nordeste 0 -- -- 92
2019-08-18 23:00:00 25.1 10 Este 13 Este 0 -- -- 93
2019-08-18 22:00:00 25.4 3 Sudeste 10 Sudeste 0 -- -- 91
2019-08-18 21:00:00 25.5 6 Sur 15 Sur 0 -- -- 89
2019-08-18 20:00:00 25.7 11 Sur 20 Sur 0 -- -- 91
2019-08-18 19:00:00 26.3 15 Sur 25 Sudoeste 0 -- -- 88
2019-08-18 18:00:00 26.6 21 Sur 31 Sur 0 -- -- 86
2019-08-18 17:00:00 26.6 26 Sur 32 Sudoeste 0 -- -- 86
2019-08-18 16:00:00 26.9 28 Sudoeste 34 Sudoeste 0 -- -- 83
2019-08-18 15:00:00 26.6 27 Sudoeste 32 Sudoeste 0 -- -- 85
2019-08-18 14:00:00 27 23 Sur 31 Sudoeste 0 -- -- 86
2019-08-18 13:00:00 26.6 21 Sur 28 Sudoeste 0 -- -- 87
2019-08-18 12:00:00 26.8 20 Sur 26 Sur 0 -- -- 85
2019-08-18 11:00:00 28 10 Sur 15 Este 0 -- -- 73
2019-08-18 10:00:00 27.7 5 Sudeste 10 Este 0 -- -- 68
2019-08-18 09:00:00 26 5 Norte 13 Norte 0 -- -- 70
2019-08-18 08:00:00 23.8 7 Norte 12 Nordeste 0 -- -- 77
2019-08-18 07:00:00 22.8 8 Norte 12 Norte 0 -- -- 82
2019-08-18 06:00:00 23.2 6 Norte 10 Norte 0 -- -- 84
2019-08-18 05:00:00 23.7 5 Norte 8 Norte 0 -- -- 83
2019-08-18 04:00:00 24 0 Calma 5 Sur 0 -- -- 91
2019-08-18 03:00:00 24.4 3 Sur 6 Sur 0 -- -- 91
2019-08-18 02:00:00 24.6 4 Sur 9 Sur 0 -- -- 91
2019-08-18 01:00:00 24.7 5 Sur 9 Sudoeste 0 -- -- 91
2019-08-18 00:00:00 24.8 7 Sur 9 Sur 0 -- -- 91
2019-08-17 23:00:00 25.2 6 Sudoeste 12 Sudoeste 0 -- -- 90
2019-08-17 22:00:00 25.6 7 Sudoeste 17 Sudoeste 0 -- -- 85
2019-08-17 21:00:00 26.1 10 Sudoeste 22 Sudoeste 0 -- -- 78
2019-08-17 20:00:00 27 15 Sudoeste 27 Sudoeste 0 -- -- 67
2019-08-17 19:00:00 27.4 17 Sudoeste 29 Sudoeste 0 -- -- 71
2019-08-17 18:00:00 27.6 22 Sudoeste 36 Sudoeste 0 -- -- 70
2019-08-17 17:00:00 26.8 25 Sudoeste 34 Sudoeste 0 -- -- 79
2019-08-17 16:00:00 26.8 27 Sudoeste 35 Sudoeste 0 -- -- 82
2019-08-17 15:00:00 26.8 25 Sudoeste 34 Sudoeste 0 -- -- 82
2019-08-17 14:00:00 26.6 26 Sudoeste 33 Sudoeste 0 -- -- 85
2019-08-17 13:00:00 26.5 23 Sudoeste 28 Sudoeste 0 -- -- 87
2019-08-17 12:00:00 26.2 22 Sudoeste 27 Sudoeste 0 -- -- 87
2019-08-17 11:00:00 27.8 13 Sudoeste 23 Sudoeste 0 -- -- 70
2019-08-17 10:00:00 26.7 12 Oeste 20 Oeste 0 -- -- 72
2019-08-17 09:00:00 25.9 6 Oeste 18 Oeste 0 -- -- 78
2019-08-17 08:00:00 24.3 8 Oeste 14 Sudoeste 0 -- -- 85
2019-08-17 07:00:00 23.8 6 Oeste 12 Oeste 0 -- -- 88
2019-08-17 06:00:00 23.8 6 Oeste 13 Oeste 0 -- -- 88
2019-08-17 05:00:00 23.8 4 Noroeste 7 Noroeste 0 -- -- 87
2019-08-17 04:00:00 23.8 4 Noroeste 10 Noroeste 0 -- -- 86
2019-08-17 03:00:00 24.1 6 Oeste 12 Oeste 0 -- -- 84
2019-08-17 02:00:00 24.2 8 Oeste 15 Oeste 0 -- -- 86
2019-08-17 01:00:00 24.6 8 Oeste 18 Oeste 0 -- -- 84
2019-08-17 00:00:00 24.7 6 Oeste 11 Oeste 0 -- -- 81
2019-08-16 23:00:00 25 7 Oeste 37 Oeste 0 -- -- 82
2019-08-16 22:00:00 25.2 10 Sudoeste 25 Sudoeste 0 -- -- 83
2019-08-16 21:00:00 25.4 15 Sudoeste 31 Sudoeste 0 -- -- 81
2019-08-16 20:00:00 26.1 16 Sudoeste 41 Sudoeste 0 -- -- 79
2019-08-16 19:00:00 26.9 18 Sudoeste 32 Sudoeste 0 -- -- 68
2019-08-16 18:00:00 27 21 Sudoeste 36 Sudoeste 0 -- -- 67
2019-08-16 17:00:00 27.4 17 Sudoeste 33 Sur 0 -- -- 72
2019-08-16 16:00:00 26.6 14 Sur 21 Sur 0 -- -- 82
2019-08-16 15:00:00 25 12 Sur 16 Sudoeste 0 -- -- 82
2019-08-16 14:00:00 25.1 7 Sur 19 Sur 0 -- -- 79
2019-08-16 13:00:00 24 14 Sur 20 Sudoeste 0 -- -- 79
2019-08-16 12:00:00 24.3 7 Sur 15 Sudeste 0 -- -- 77
2019-08-16 11:00:00 23.3 6 Sudeste 15 Este 0 -- -- 82
2019-08-16 10:00:00 22.8 13 Este 22 Sudeste 0.1 -- -- 83
2019-08-16 09:00:00 23 11 Sudeste 24 Sudeste 0.3 -- -- 83
2019-08-16 08:00:00 23.1 13 Sudeste 23 Sudeste 0.2 -- -- 82
2019-08-16 07:00:00 23.1 12 Sudeste 19 Sudeste 0.3 -- -- 89
2019-08-16 06:00:00 23.1 5 Sudeste 12 Sudeste 0.2 -- -- 90
2019-08-16 05:00:00 23.3 0 Calma 26 Sudeste 0.2 -- -- 89
2019-08-16 04:00:00 23.3 14 Sudeste 25 Sudeste 2.1 -- -- 91
2019-08-16 03:00:00 23.3 8 Norte 12 Norte 1.7 -- -- 87
2019-08-16 02:00:00 23.8 5 Sudeste 18 Este 0.3 -- -- 89
2019-08-16 01:00:00 24.1 5 Este 33 Este 0 -- -- 85
2019-08-16 00:00:00 24.4 19 Este 31 Este 0 -- -- 90
2019-08-15 23:00:00 24.2 14 Nordeste 32 Nordeste 0 -- -- 90
2019-08-15 22:00:00 24.3 15 Este 45 Nordeste 0 -- -- 91
2019-08-15 21:00:00 24.4 15 Este 32 Este 0 -- -- 87
2019-08-15 20:00:00 25.6 13 Sur 23 Sudoeste 0 -- -- 86
2019-08-15 19:00:00 25.8 19 Sur 26 Sur 0 -- -- 85
2019-08-15 18:00:00 26.2 22 Sur 33 Sudoeste 0 -- -- 87
2019-08-15 17:00:00 26.3 28 Sudoeste 35 Sudoeste 0 -- -- 78
2019-08-15 16:00:00 26.8 23 Sudoeste 31 Sur 0 -- -- 74
2019-08-15 15:00:00 26.7 24 Sudoeste 28 Sudoeste 0 -- -- 74
2019-08-15 14:00:00 26.6 24 Sudoeste 28 Sudoeste 0 -- -- 75
2019-08-15 13:00:00 27.6 12 Sudeste 18 Sudeste 0 -- -- 79
2019-08-15 12:00:00 27 13 Este 16 Este 0 -- -- 80
2019-08-15 11:00:00 25.9 10 Este 14 Este 0 -- -- 78
2019-08-15 10:00:00 25.1 5 Norte 13 Norte 0 -- -- 73
2019-08-15 09:00:00 23.6 7 Norte 11 Norte 0 -- -- 75
2019-08-15 08:00:00 22.9 8 Norte 12 Norte 0 -- -- 78
2019-08-15 07:00:00 22.5 8 Norte 12 Norte 0 -- -- 82
2019-08-15 06:00:00 22.5 9 Norte 12 Norte 0 -- -- 80
2019-08-15 05:00:00 22.7 7 Norte 11 Norte 0 -- -- 79
2019-08-15 04:00:00 22.8 6 Norte 10 Norte 0 -- -- 79
2019-08-15 03:00:00 23.2 7 Norte 9 Nordeste 0 -- -- 79
2019-08-15 02:00:00 23.6 4 Nordeste 8 Nordeste 0 -- -- 79
2019-08-15 01:00:00 24 5 Norte 11 Nordeste 0 -- -- 78
2019-08-15 00:00:00 24.8 5 Oeste 9 Oeste 0 -- -- 85
2019-08-14 23:00:00 24.7 7 Oeste 16 Oeste 0 -- -- 84
2019-08-14 22:00:00 24.9 7 Sudoeste 18 Sudoeste 0 -- -- 81
2019-08-14 21:00:00 25 13 Sudoeste 21 Sudoeste 0 -- -- 77
2019-08-14 20:00:00 25 16 Sudoeste 23 Sudoeste 0 -- -- 73
2019-08-14 19:00:00 25.3 17 Sur 23 Sudoeste 0 -- -- 66
2019-08-14 18:00:00 25.6 19 Sur 24 Sur 0 -- -- 57
2019-08-14 17:00:00 25.9 14 Sur 30 Sudeste 0 -- -- 62
2019-08-14 16:00:00 25.6 21 Sudeste 59 Sudeste 0 -- -- 70
2019-08-14 15:00:00 25 22 Sudeste 29 Sudeste 0 -- -- 72
2019-08-14 14:00:00 25.2 21 Sudeste 28 Sudeste 0 -- -- 67
2019-08-14 13:00:00 24.7 18 Este 23 Este 0 -- -- 65
2019-08-14 12:00:00 24.8 15 Este 21 Sudeste 0 -- -- 64
2019-08-14 11:00:00 23.9 10 Este 17 Este 0 -- -- 65
2019-08-14 10:00:00 23.8 9 Este 17 Este 0 -- -- 65
2019-08-14 09:00:00 22.6 8 Nordeste 14 Nordeste 0 -- -- 66
2019-08-14 08:00:00 21.5 9 Norte 15 Norte 0 -- -- 69
2019-08-14 07:00:00 20.9 9 Norte 30 Este 0 -- -- 74
2019-08-14 06:00:00 22.2 26 Este 31 Este 0 -- -- 73
2019-08-14 05:00:00 22.4 15 Nordeste 25 Este 0 -- -- 74
2019-08-14 04:00:00 22.2 15 Nordeste 22 Nordeste 0 -- -- 76
2019-08-14 03:00:00 21.9 8 Norte 12 Norte 0 -- -- 76
2019-08-14 02:00:00 22.3 7 Norte 11 Norte 0 -- -- 72
2019-08-14 01:00:00 23.1 5 Nordeste 11 Noroeste 0 -- -- 72
2019-08-14 00:00:00 23.5 4 Noroeste 21 Oeste 0 -- -- 74
2019-08-13 23:00:00 23.8 10 Oeste 22 Oeste 0 -- -- 73
2019-08-13 22:00:00 23.9 12 Oeste 22 Sudoeste 0 -- -- 70
2019-08-13 21:00:00 24.3 15 Oeste 35 Sudoeste 0 -- -- 65
2019-08-13 20:00:00 25.1 20 Sudoeste 54 Sudoeste 0 -- -- 56
2019-08-13 19:00:00 25.9 17 Sudoeste 39 Sudoeste 0 -- -- 52
2019-08-13 18:00:00 25.5 27 Sudoeste 43 Sudoeste 0 -- -- 51
2019-08-13 17:00:00 25.3 32 Sudoeste 43 Sudoeste 0 -- -- 52
2019-08-13 16:00:00 24.9 27 Sudoeste 38 Sudoeste 0 -- -- 56
2019-08-13 15:00:00 24.3 26 Sudoeste 34 Sudoeste 0 -- -- 58
2019-08-13 14:00:00 23.7 24 Sur 32 Sudoeste 0 -- -- 61
2019-08-13 13:00:00 25.8 13 Sudoeste 22 Sudoeste 0 -- -- 42
2019-08-13 12:00:00 24.7 6 Oeste 19 Oeste 0 -- -- 42
2019-08-13 11:00:00 23.4 10 Norte 20 Norte 0 -- -- 46
2019-08-13 10:00:00 22.6 8 Norte 20 Norte 0 -- -- 50
2019-08-13 09:00:00 20.8 11 Norte 17 Norte 0 -- -- 53
2019-08-13 08:00:00 21 4 Norte 18 Norte 0 -- -- 53
2019-08-13 07:00:00 20.9 8 Norte 27 Norte 0 -- -- 52
2019-08-13 06:00:00 21.1 11 Noroeste 26 Norte 0 -- -- 52
2019-08-13 05:00:00 21.4 13 Norte 21 Norte 0 -- -- 61
2019-08-13 04:00:00 22 8 Noroeste 18 Noroeste 0 -- -- 60
2019-08-13 03:00:00 22.5 9 Norte 19 Norte 0 -- -- 56
2019-08-13 02:00:00 22.9 10 Norte 17 Norte 0 -- -- 58
2019-08-13 01:00:00 23.5 6 Norte 16 Este 0 -- -- 68
2019-08-13 00:00:00 24.5 4 Oeste 8 Oeste 0 -- -- 65
2019-08-12 23:00:00 24.6 5 Oeste 8 Oeste 0 -- -- 64
2019-08-12 22:00:00 24.3 2 Sudoeste 12 Este 0 -- -- 68
2019-08-12 21:00:00 24.5 11 Sudeste 18 Sudeste 0 -- -- 66
2019-08-12 20:00:00 25 15 Sudeste 21 Sudeste 0 -- -- 67
2019-08-12 19:00:00 25.9 14 Sur 24 Sur 0 -- -- 69
2019-08-12 18:00:00 25.8 18 Sur 28 Sudoeste 0 -- -- 68
2019-08-12 17:00:00 25.7 23 Sudoeste 31 Sur 0 -- -- 70
2019-08-12 16:00:00 25.9 23 Sudoeste 31 Sudoeste 0 -- -- 71
2019-08-12 15:00:00 26.3 21 Sudoeste 27 Sudoeste 0 -- -- 67
2019-08-12 14:00:00 25.5 19 Sudoeste 24 Sudoeste 0 -- -- 68
2019-08-12 13:00:00 27.1 5 Sudeste 16 Este 0 -- -- 62
2019-08-12 12:00:00 26 14 Este 21 Sudeste 0 -- -- 67
2019-08-12 11:00:00 26.1 6 Este 20 Nordeste 0 -- -- 68
2019-08-12 10:00:00 24.3 3 Noroeste 12 Norte 0 -- -- 70
2019-08-12 09:00:00 22.7 7 Norte 19 Norte 0 -- -- 82
2019-08-12 08:00:00 21.9 8 Norte 21 Norte 0 -- -- 88
2019-08-12 07:00:00 21.8 9 Norte 17 Norte 0 -- -- 88
2019-08-12 06:00:00 21.3 8 Norte 12 Norte 0.6 -- -- 93
2019-08-12 05:00:00 21.6 3 Oeste 34 Este 16.8 -- -- 94
2019-08-12 04:00:00 25.2 27 Este 34 Este 0 -- -- 72
2019-08-12 03:00:00 25.5 7 Este 11 Este 0 -- -- 70
2019-08-12 02:00:00 25.4 8 Este 16 Este 0 -- -- 74
2019-08-12 01:00:00 25.1 16 Este 27 Este 0 -- -- 76
2019-08-12 00:00:00 24.9 24 Este 41 Este 0 -- -- 78
2019-08-11 23:00:00 25.3 35 Este 44 Este 0 -- -- 75
2019-08-11 22:00:00 25.9 36 Este 44 Este 0 -- -- 75
2019-08-11 21:00:00 26 25 Este 28 Este 0 -- -- 90
2019-08-11 20:00:00 26.6 11 Sudeste 19 Sur 0 -- -- 87
2019-08-11 19:00:00 26.5 16 Sur 26 Sur 0 -- -- 86
2019-08-11 18:00:00 27.7 14 Sur 21 Sur 0 -- -- 80
2019-08-11 17:00:00 28 14 Sur 19 Sur 0 -- -- 76
2019-08-11 16:00:00 27.6 14 Sur 21 Sur 0 -- -- 70
2019-08-11 15:00:00 28.2 15 Sur 23 Sur 0 -- -- 62
2019-08-11 14:00:00 28.1 12 Sur 18 Sur 0 -- -- 62
2019-08-11 13:00:00 27.8 12 Sur 19 Sur 0 -- -- 69
2019-08-11 12:00:00 27.5 11 Sur 20 Sur 0 -- -- 71
2019-08-11 11:00:00 27.4 10 Sur 13 Sudoeste 0 -- -- 70
2019-08-11 10:00:00 27.6 7 Sur 11 Sudoeste 0 -- -- 71
2019-08-11 09:00:00 26.8 4 Sudeste 7 Sudeste 0 -- -- 76
2019-08-11 08:00:00 25 5 Norte 8 Norte 0 -- -- 80
2019-08-11 07:00:00 24.1 4 Norte 8 Norte 0 -- -- 85
2019-08-11 06:00:00 24.4 3 Norte 13 Nordeste 0 -- -- 86
2019-08-11 05:00:00 24.7 8 Este 15 Este 0 -- -- 90
2019-08-11 04:00:00 24.8 6 Nordeste 11 Este 0 -- -- 89
2019-08-11 03:00:00 25 6 Nordeste 15 Este 0 -- -- 89
2019-08-11 02:00:00 25.2 9 Este 14 Este 0 -- -- 88
2019-08-11 01:00:00 25 12 Este 15 Este 0 -- -- 90
2019-08-11 00:00:00 25.2 12 Este 16 Este 0 -- -- 89
2019-08-10 23:00:00 25.3 13 Este 20 Este 0 -- -- 89
2019-08-10 22:00:00 25.5 18 Este 22 Este 0 -- -- 86
2019-08-10 21:00:00 25.6 18 Este 23 Este 0 -- -- 85
2019-08-10 20:00:00 26.7 19 Este 22 Este 0 -- -- 76
2019-08-10 19:00:00 27.5 15 Este 19 Sudeste 0 -- -- 70
2019-08-10 18:00:00 27.9 16 Este 21 Este 0 -- -- 67
2019-08-10 17:00:00 28.8 16 Sudeste 21 Sudeste 0 -- -- 64
2019-08-10 16:00:00 29.3 17 Sudeste 22 Sudeste 0 -- -- 65
2019-08-10 15:00:00 29.2 14 Sur 20 Sudeste 0 -- -- 66
2019-08-10 14:00:00 29 12 Sur 18 Sur 0 -- -- 73
2019-08-10 13:00:00 29.1 12 Sur 18 Sur 0 -- -- 78
2019-08-10 12:00:00 27.9 13 Sur 19 Sur 0 -- -- 83
2019-08-10 11:00:00 28.2 10 Sur 15 Sur 0 -- -- 82
2019-08-10 10:00:00 27.4 6 Sudoeste 9 Sur 0 -- -- 84
2019-08-10 09:00:00 26.1 8 Sudeste 16 Sudeste 0 -- -- 91
2019-08-10 08:00:00 25.5 15 Sudeste 22 Este 0 -- -- 93
2019-08-10 07:00:00 25.3 21 Este 29 Este 0 -- -- 93
2019-08-10 06:00:00 25.6 25 Este 32 Este 0 -- -- 90
2019-08-10 05:00:00 25.8 26 Este 37 Sudeste 0 -- -- 92
2019-08-10 04:00:00 25.8 13 Nordeste 21 Nordeste 0 -- -- 93
2019-08-10 03:00:00 26.6 4 Sudeste 9 Este 0 -- -- 87
2019-08-10 02:00:00 27.2 5 Oeste 17 Sudoeste 0 -- -- 75
2019-08-10 01:00:00 27.5 11 Sudoeste 18 Oeste 0 -- -- 70
2019-08-10 00:00:00 27.3 7 Oeste 21 Oeste 0 -- -- 78
2019-08-09 23:00:00 27.2 9 Sudoeste 21 Sudoeste 0 -- -- 91
2019-08-09 22:00:00 27.4 12 Sudoeste 18 Oeste 0 -- -- 90
2019-08-09 21:00:00 27.9 11 Sudoeste 25 Sudoeste 0 -- -- 87
2019-08-09 20:00:00 28.3 21 Sudoeste 29 Sudoeste 0 -- -- 87
2019-08-09 19:00:00 28.9 19 Sudoeste 30 Sudoeste 0 -- -- 83
2019-08-09 18:00:00 28.3 24 Sudoeste 31 Sudoeste 0 -- -- 87
2019-08-09 17:00:00 27.8 23 Sur 29 Sur 0 -- -- 90
2019-08-09 16:00:00 27.8 23 Sudoeste 29 Sudoeste 0 -- -- 89
2019-08-09 15:00:00 27.7 24 Sudoeste 29 Sudoeste 0 -- -- 90
2019-08-09 14:00:00 27.5 25 Sur 29 Sur 0 -- -- 90
2019-08-09 13:00:00 27.5 24 Sudoeste 29 Sudoeste 0 -- -- 89
2019-08-09 12:00:00 27.2 23 Sudoeste 28 Sudoeste 0 -- -- 90
2019-08-09 11:00:00 27.1 18 Sudoeste 23 Sudoeste 0 -- -- 90
2019-08-09 10:00:00 28.1 10 Sudoeste 19 Oeste 0 -- -- 79
2019-08-09 09:00:00 27.2 9 Sudoeste 13 Oeste 0 -- -- 87
2019-08-09 08:00:00 25.9 8 Oeste 12 Oeste 0 -- -- 91
2019-08-09 07:00:00 25.4 6 Oeste 13 Oeste 0 -- -- 85
2019-08-09 06:00:00 25.4 9 Oeste 14 Sudoeste 0 -- -- 66
2019-08-09 05:00:00 25.7 8 Sur 12 Sur 0 -- -- 84
2019-08-09 04:00:00 25.8 3 Norte 7 Nordeste 0 -- -- 73
2019-08-09 03:00:00 26.3 4 Sudoeste 11 Oeste 0 -- -- 87
2019-08-09 02:00:00 26.4 6 Oeste 17 Sudoeste 0 -- -- 85
2019-08-09 01:00:00 26.8 9 Sudoeste 15 Sudoeste 0 -- -- 87
2019-08-09 00:00:00 26.6 11 Sudoeste 16 Sudoeste 0 -- -- 91
2019-08-08 23:00:00 27.4 9 Sudoeste 15 Oeste 0 -- -- 78
2019-08-08 22:00:00 28 9 Oeste 23 Oeste 0 -- -- 62
2019-08-08 21:00:00 27.5 18 Sudoeste 24 Sudoeste 0 -- -- 78
2019-08-08 20:00:00 28 17 Sudoeste 27 Sudoeste 0 -- -- 78
2019-08-08 19:00:00 27.9 22 Sudoeste 31 Sudoeste 0 -- -- 77
2019-08-08 18:00:00 27.3 23 Sudoeste 31 Sudoeste 0 -- -- 89
2019-08-08 17:00:00 27.3 25 Sudoeste 35 Sudoeste 0 -- -- 87
2019-08-08 16:00:00 27.4 27 Sudoeste 36 Sudoeste 0 -- -- 85
2019-08-08 15:00:00 27.6 22 Sudoeste 32 Sudoeste 0 -- -- 87
2019-08-08 14:00:00 27.5 25 Sudoeste 32 Sudoeste 0 -- -- 88
2019-08-08 13:00:00 27.3 25 Sudoeste 31 Sudoeste 0 -- -- 89
2019-08-08 12:00:00 27.4 21 Sur 26 Sudoeste 0 -- -- 87
2019-08-08 11:00:00 26.8 22 Sudoeste 27 Sudoeste 0 -- -- 89
2019-08-08 10:00:00 27.9 8 Sur 12 Sur 0 -- -- 80
2019-08-08 09:00:00 27.8 0 Calma 10 Oeste 0 -- -- 77
2019-08-08 08:00:00 25.7 6 Sudoeste 10 Sudoeste 0 -- -- 86
2019-08-08 07:00:00 25.3 5 Sudoeste 11 Noroeste 0 -- -- 87
2019-08-08 06:00:00 25.4 3 Noroeste 6 Noroeste 0 -- -- 87
2019-08-08 05:00:00 25.4 5 Oeste 16 Oeste 0 -- -- 88
2019-08-08 04:00:00 25.4 9 Sudoeste 18 Sudoeste 0 -- -- 86
2019-08-08 03:00:00 25.6 8 Oeste 16 Oeste 0 -- -- 83
2019-08-08 02:00:00 25.9 4 Sur 9 Sur 0 -- -- 82
2019-08-08 01:00:00 25.9 0 Calma 10 Noroeste 0 -- -- 79
2019-08-08 00:00:00 25.6 6 Noroeste 11 Oeste 0 -- -- 77
2019-08-07 23:00:00 25.1 5 Sur 9 Sur 0 -- -- 82
2019-08-07 22:00:00 25 5 Este 10 Sudeste 0 -- -- 83
2019-08-07 21:00:00 25.2 6 Sur 15 Sudeste 0 -- -- 82
2019-08-07 20:00:00 25.2 10 Sudeste 14 Este 0 -- -- 87
2019-08-07 19:00:00 26 9 Sudeste 14 Sudeste 0 -- -- 85
2019-08-07 18:00:00 26.2 10 Sudeste 14 Este 0 -- -- 83
2019-08-07 17:00:00 27.2 12 Sudeste 23 Sudeste 0 -- -- 81
2019-08-07 16:00:00 26.4 13 Sudeste 23 Sudeste 0 -- -- 84
2019-08-07 15:00:00 27 15 Sudeste 20 Sudeste 0 -- -- 78
2019-08-07 14:00:00 27.8 14 Sudeste 21 Sudeste 0 -- -- 80
2019-08-07 13:00:00 27.9 15 Sudeste 19 Este 0 -- -- 79
2019-08-07 12:00:00 27.4 14 Este 24 Este 0 -- -- 80
2019-08-07 11:00:00 26.6 19 Este 23 Este 0 -- -- 84
2019-08-07 10:00:00 26.3 17 Este 21 Este 0 -- -- 85
2019-08-07 09:00:00 25.5 10 Este 15 Este 0 -- -- 87
2019-08-07 08:00:00 24.8 10 Este 13 Este 0 -- -- 89
2019-08-07 07:00:00 24.7 6 Nordeste 21 Este 0 -- -- 90
2019-08-07 06:00:00 24.8 17 Este 22 Este 0 -- -- 92
2019-08-07 05:00:00 25.1 13 Este 21 Este 0 -- -- 92
2019-08-07 04:00:00 25.1 9 Este 12 Este 0 -- -- 93
2019-08-07 03:00:00 25.3 9 Sudeste 13 Sudeste 0 -- -- 93
2019-08-07 02:00:00 25.3 10 Sudeste 13 Sudeste 0 -- -- 93
2019-08-07 01:00:00 25.5 14 Este 20 Este 0 -- -- 93
2019-08-07 00:00:00 25.7 8 Este 12 Este 0 -- -- 91
2019-08-06 23:00:00 25.8 8 Sudoeste 13 Sudoeste 0 -- -- 90
2019-08-06 22:00:00 25.8 12 Sur 18 Sudoeste 0 -- -- 90
2019-08-06 21:00:00 26.4 13 Sudoeste 19 Sudoeste 0 -- -- 88
2019-08-06 20:00:00 26.8 14 Sur 22 Sur 0 -- -- 88
2019-08-06 19:00:00 26.7 12 Sur 17 Sur 0 -- -- 86
2019-08-06 18:00:00 28.2 11 Sur 16 Sur 0 -- -- 79
2019-08-06 17:00:00 28.4 9 Sur 18 Sudeste 0 -- -- 81
2019-08-06 16:00:00 28 14 Sudeste 19 Sudeste 0 -- -- 80
2019-08-06 15:00:00 28.5 13 Sudeste 15 Sudeste 0 -- -- 78
2019-08-06 14:00:00 28.5 10 Este 16 Este 0 -- -- 79
2019-08-06 13:00:00 27.5 13 Este 19 Este 0 -- -- 83
2019-08-06 12:00:00 26.6 16 Este 21 Este 0 -- -- 87
2019-08-06 11:00:00 26.6 17 Este 22 Sudeste 0 -- -- 87
2019-08-06 10:00:00 25.6 15 Este 24 Este 0 -- -- 90
2019-08-06 09:00:00 25.4 8 Nordeste 15 Este 0 -- -- 80
2019-08-06 08:00:00 24 8 Norte 13 Nordeste 0 -- -- 81
2019-08-06 07:00:00 24 8 Nordeste 12 Nordeste 0 -- -- 78
2019-08-06 06:00:00 24.1 8 Norte 11 Norte 0 -- -- 69
2019-08-06 05:00:00 24.2 5 Norte 9 Nordeste 0 -- -- 78
2019-08-06 04:00:00 24.7 4 Nordeste 9 Nordeste 0 -- -- 86
2019-08-06 03:00:00 24.8 6 Este 12 Este 0 -- -- 87
2019-08-06 02:00:00 25.2 6 Este 11 Este 0 -- -- 89
2019-08-06 01:00:00 25.5 8 Este 10 Este 0 -- -- 86
2019-08-06 00:00:00 25.6 8 Este 9 Este 0 -- -- 88
2019-08-05 23:00:00 25.7 6 Este 8 Sudeste 0 -- -- 87
2019-08-05 22:00:00 26.2 7 Sudeste 14 Sudeste 0 -- -- 79
2019-08-05 21:00:00 26.3 10 Sudeste 12 Sudeste 0 -- -- 84
2019-08-05 20:00:00 28.1 9 Sudeste 13 Sur 0 -- -- 70
2019-08-05 19:00:00 28.1 9 Sur 14 Sudoeste 0 -- -- 68
2019-08-05 18:00:00 28.3 10 Sur 16 Sur 0 -- -- 71
2019-08-05 17:00:00 28.1 14 Sur 17 Sur 0 -- -- 68
2019-08-05 16:00:00 28.3 15 Sur 21 Sudoeste 0 -- -- 64
2019-08-05 15:00:00 28.3 15 Sudoeste 21 Sudoeste 0 -- -- 61
2019-08-05 14:00:00 27.9 19 Sudoeste 23 Sudoeste 0 -- -- 60
2019-08-05 13:00:00 28.3 12 Sur 17 Sur 0 -- -- 56
2019-08-05 12:00:00 29.7 10 Sur 15 Sudeste 0 -- -- 53
2019-08-05 11:00:00 29.8 6 Sudeste 11 Sudeste 0 -- -- 51
2019-08-05 10:00:00 28.1 4 Sudeste 8 Sudeste 0 -- -- 65
2019-08-05 09:00:00 27.8 2 Este 5 Sudeste 0 -- -- 66
2019-08-05 08:00:00 26.1 0 Calma 5 Norte 0 -- -- 56
2019-08-05 07:00:00 24.3 5 Norte 10 Norte 0 -- -- 57
2019-08-05 06:00:00 24 3 Norte 10 Norte 0 -- -- 61
2019-08-05 05:00:00 24.5 4 Norte 6 Oeste 0 -- -- 68
2019-08-05 04:00:00 25 5 Oeste 11 Oeste 0 -- -- 87
2019-08-05 03:00:00 24.9 6 Oeste 12 Oeste 0 -- -- 90
2019-08-05 02:00:00 25.2 5 Oeste 15 Oeste 0 -- -- 89
2019-08-05 01:00:00 25.5 9 Sudoeste 14 Sudoeste 0 -- -- 86
2019-08-05 00:00:00 25.2 11 Sudoeste 14 Sudoeste 0 -- -- 90
2019-08-04 23:00:00 26.2 6 Sudoeste 15 Sudoeste 0 -- -- 81
2019-08-04 22:00:00 25.3 13 Sudoeste 19 Sudoeste 0 -- -- 91
2019-08-04 21:00:00 25.6 16 Sudoeste 22 Sudoeste 0 -- -- 90
2019-08-04 20:00:00 26.7 17 Sudoeste 22 Sudoeste 0 -- -- 84
2019-08-04 19:00:00 29.2 16 Sudoeste 30 Sudoeste 0 -- -- 59
2019-08-04 18:00:00 27.7 22 Sudoeste 32 Sur 0 -- -- 70
2019-08-04 17:00:00 27.6 26 Sudoeste 32 Sudoeste 0 -- -- 68
2019-08-04 16:00:00 27 25 Sudoeste 30 Sudoeste 0 -- -- 82
2019-08-04 15:00:00 27.5 23 Sudoeste 32 Sudoeste 0 -- -- 80
2019-08-04 14:00:00 27 19 Sur 26 Sudoeste 0 -- -- 87
2019-08-04 13:00:00 26.6 22 Sudoeste 27 Sudoeste 0 -- -- 83
2019-08-04 12:00:00 26.6 20 Sudoeste 25 Sudoeste 0 -- -- 82
2019-08-04 11:00:00 27.1 16 Sudoeste 19 Sudoeste 0 -- -- 72
2019-08-04 10:00:00 27.7 5 Sudeste 10 Sudeste 0 -- -- 71
2019-08-04 09:00:00 26.9 3 Sudeste 6 Este 0 -- -- 70
2019-08-04 08:00:00 25 2 Norte 4 Norte 0 -- -- 73
2019-08-04 07:00:00 23.7 0 Calma 5 Norte 0 -- -- 78
2019-08-04 06:00:00 24.5 3 Norte 4 Norte 0 -- -- 77
2019-08-04 05:00:00 24.7 3 Norte 6 Noroeste 0 -- -- 74
2019-08-04 04:00:00 25.1 4 Noroeste 9 Noroeste 0 -- -- 74
2019-08-04 03:00:00 25.2 6 Oeste 14 Oeste 0 -- -- 80
2019-08-04 02:00:00 25.5 8 Oeste 13 Oeste 0 -- -- 80
2019-08-04 01:00:00 25.6 10 Oeste 17 Oeste 0 -- -- 78
2019-08-04 00:00:00 25.8 4 Sudoeste 16 Sudoeste 0 -- -- 76
2019-08-03 23:00:00 26 10 Sudoeste 23 Oeste 0 -- -- 73
2019-08-03 22:00:00 26 11 Sudoeste 21 Sudoeste 0 -- -- 72
2019-08-03 21:00:00 26.3 15 Sudoeste 27 Sudoeste 0 -- -- 72
2019-08-03 20:00:00 26.1 20 Sudoeste 27 Sudoeste 0 -- -- 79
2019-08-03 19:00:00 26.2 23 Sudoeste 30 Sudoeste 0 -- -- 81
2019-08-03 18:00:00 26.3 26 Sudoeste 37 Sudoeste 0 -- -- 78
2019-08-03 17:00:00 26.3 27 Sudoeste 35 Sudoeste 0 -- -- 79
2019-08-03 16:00:00 26.9 27 Sudoeste 39 Sudoeste 0 -- -- 72
2019-08-03 15:00:00 26.6 28 Sudoeste 36 Sudoeste 0 -- -- 70
2019-08-03 14:00:00 27.1 22 Sudoeste 27 Sudoeste 0 -- -- 64
2019-08-03 13:00:00 27.2 21 Sudoeste 25 Sudoeste 0 -- -- 60
2019-08-03 12:00:00 29.5 10 Sur 15 Sur 0 -- -- 53
2019-08-03 11:00:00 27.9 7 Sudeste 13 Sudeste 0 -- -- 67
2019-08-03 10:00:00 27.3 5 Sudeste 9 Este 0 -- -- 67
2019-08-03 09:00:00 26.8 3 Sudeste 7 Sur 0 -- -- 66
2019-08-03 08:00:00 25.6 0 Calma 10 Norte 0 -- -- 56
2019-08-03 07:00:00 23.8 8 Norte 13 Norte 0 -- -- 58
2019-08-03 06:00:00 23.9 8 Norte 10 Norte 0 -- -- 59
2019-08-03 05:00:00 24.2 5 Norte 6 Norte 0 -- -- 60
2019-08-03 04:00:00 24.6 2 Noroeste 10 Norte 0 -- -- 62
2019-08-03 03:00:00 24.7 6 Norte 13 Norte 0 -- -- 63
2019-08-03 02:00:00 25 6 Norte 12 Noroeste 0 -- -- 61
2019-08-03 01:00:00 25.2 2 Noroeste 9 Noroeste 0 -- -- 63
2019-08-03 00:00:00 25.1 8 Noroeste 19 Oeste 0 -- -- 68
2019-08-02 23:00:00 25.2 11 Oeste 17 Oeste 0 -- -- 70
2019-08-02 22:00:00 25.2 11 Sudoeste 18 Sur 0 -- -- 74
2019-08-02 21:00:00 25.7 14 Sudoeste 23 Sudoeste 0 -- -- 67
2019-08-02 20:00:00 26 17 Sudoeste 27 Sudoeste 0 -- -- 66
2019-08-02 19:00:00 26.6 17 Sur 30 Sudoeste 0 -- -- 63
2019-08-02 18:00:00 26.6 23 Sudoeste 32 Sudoeste 0 -- -- 59
2019-08-02 17:00:00 27 26 Sudoeste 33 Sudoeste 0 -- -- 52
2019-08-02 16:00:00 27.9 26 Sudoeste 33 Sudoeste 0 -- -- 49
2019-08-02 15:00:00 27.7 23 Sudoeste 31 Sudoeste 0 -- -- 49
2019-08-02 14:00:00 27.5 18 Sur 29 Sudoeste 0 -- -- 59
2019-08-02 13:00:00 27 21 Sur 26 Sur 0 -- -- 61
2019-08-02 12:00:00 29.5 12 Sur 17 Sur 0 -- -- 49
2019-08-02 11:00:00 29.4 6 Sur 12 Sur 0 -- -- 47
2019-08-02 10:00:00 28.4 8 Sudeste 12 Sudeste 0 -- -- 46
2019-08-02 09:00:00 26.9 2 Sudoeste 10 Norte 0 -- -- 47
2019-08-02 08:00:00 24.9 4 Norte 12 Norte 0 -- -- 52
2019-08-02 07:00:00 22.8 8 Norte 12 Noroeste 0 -- -- 59
2019-08-02 06:00:00 23.4 6 Noroeste 13 Norte 0 -- -- 57
2019-08-02 05:00:00 23.9 4 Noroeste 8 Norte 0 -- -- 54
2019-08-02 04:00:00 23.8 5 Norte 15 Norte 0 -- -- 52
2019-08-02 03:00:00 23.9 6 Norte 17 Norte 0 -- -- 55
2019-08-02 02:00:00 23.9 5 Norte 14 Norte 0 -- -- 57
2019-08-02 01:00:00 24.1 15 Este 31 Este 0 -- -- 69
2019-08-02 00:00:00 24.4 22 Este 28 Este 0 -- -- 63
2019-08-01 23:00:00 24.6 18 Este 25 Este 0 -- -- 65
2019-08-01 22:00:00 24.6 23 Este 31 Este 0 -- -- 62
2019-08-01 21:00:00 24.6 27 Este 34 Este 0 -- -- 65
2019-08-01 20:00:00 25.2 23 Este 27 Este 0 -- -- 62
2019-08-01 19:00:00 25.6 22 Este 28 Este 0 -- -- 60
2019-08-01 18:00:00 26 22 Este 31 Este 0 -- -- 56
2019-08-01 17:00:00 25.8 25 Este 32 Este 0 -- -- 63
2019-08-01 16:00:00 26.2 28 Este 33 Este 0 -- -- 59
2019-08-01 15:00:00 27 27 Este 32 Este 0 -- -- 55
2019-08-01 14:00:00 27.1 30 Este 33 Sudeste 0 -- -- 50
2019-08-01 13:00:00 26.8 24 Este 31 Este 0 -- -- 52
2019-08-01 12:00:00 26.3 24 Este 31 Este 0 -- -- 50
2019-08-01 11:00:00 25.6 26 Este 38 Este 0 -- -- 50
2019-08-01 10:00:00 24.7 31 Este 39 Este 0 -- -- 54
2019-08-01 09:00:00 24.7 14 Este 24 Este 0 -- -- 65
2019-08-01 08:00:00 23.4 7 Norte 14 Norte 0 -- -- 67
2019-08-01 07:00:00 22.6 9 Norte 14 Nordeste 0 -- -- 71
2019-08-01 06:00:00 22.2 8 Norte 18 Norte 0 -- -- 77
2019-08-01 05:00:00 22.2 12 Norte 22 Norte 0 -- -- 78
2019-08-01 04:00:00 22.8 9 Norte 16 Nordeste 0 -- -- 76
2019-08-01 03:00:00 22.8 5 Noroeste 14 Norte 0 -- -- 77
2019-08-01 02:00:00 23 8 Norte 14 Nordeste 0 -- -- 75
2019-08-01 01:00:00 23.2 3 Sudeste 9 Este 0 -- -- 74
2019-08-01 00:00:00 23.4 3 Nordeste 15 Este 0 -- -- 73
2019-07-31 23:00:00 23.4 12 Este 18 Este 0 -- -- 74
2019-07-31 22:00:00 23.6 7 Sudeste 17 Sudeste 0 -- -- 73
2019-07-31 21:00:00 24.1 7 Sur 18 Sudeste 0 -- -- 71
2019-07-31 20:00:00 24.8 11 Sudeste 18 Sudeste 0 -- -- 68
2019-07-31 19:00:00 25.4 12 Sudeste 20 Sudeste 0 -- -- 66
2019-07-31 18:00:00 25.7 13 Sudeste 23 Sudeste 0 -- -- 65
2019-07-31 17:00:00 25.4 17 Sudeste 23 Sudeste 0 -- -- 66
2019-07-31 16:00:00 25.7 17 Sudeste 24 Sudeste 0 -- -- 67
2019-07-31 15:00:00 25.3 17 Sudeste 27 Sudeste 0 -- -- 67
2019-07-31 14:00:00 25.3 18 Sudeste 27 Sudeste 0 -- -- 67
2019-07-31 13:00:00 25.3 19 Sudeste 26 Sudeste 0 -- -- 66
2019-07-31 12:00:00 25.5 22 Sudeste 27 Sudeste 0 -- -- 66
2019-07-31 11:00:00 24.8 17 Este 23 Este 0 -- -- 66
2019-07-31 10:00:00 23.9 18 Este 25 Este 0 -- -- 70
2019-07-31 09:00:00 23.9 15 Sudeste 21 Sudeste 0 -- -- 71
2019-07-31 08:00:00 24.2 14 Sudeste 24 Sudeste 0 -- -- 74
2019-07-31 07:00:00 24.1 14 Sudeste 19 Sudeste 0 -- -- 78
2019-07-31 06:00:00 24.4 9 Sudeste 13 Sudeste 0 -- -- 78
2019-07-31 05:00:00 24.5 4 Oeste 6 Oeste 0 -- -- 70
2019-07-31 04:00:00 24.7 4 Sudoeste 9 Sudoeste 0 -- -- 67
2019-07-31 03:00:00 24.9 7 Sudoeste 12 Sur 0 -- -- 65
2019-07-31 02:00:00 25 7 Sur 11 Sur 0 -- -- 67
2019-07-31 01:00:00 24.7 5 Sur 15 Sudeste 0 -- -- 69
2019-07-31 00:00:00 24.7 10 Sudeste 17 Sudeste 0 -- -- 75
2019-07-30 23:00:00 24.7 13 Sudeste 23 Sudeste 0 -- -- 78
2019-07-30 22:00:00 24.6 18 Sudeste 25 Sudeste 0 -- -- 81
2019-07-30 21:00:00 25.3 13 Sudeste 21 Sur 0 -- -- 79
2019-07-30 20:00:00 25.5 14 Sur 21 Sur 0 -- -- 78
2019-07-30 19:00:00 25.9 15 Sur 22 Sur 0 -- -- 75
2019-07-30 18:00:00 26.2 16 Sur 26 Sur 0 -- -- 72
2019-07-30 17:00:00 26.6 18 Sur 31 Sur 0 -- -- 71
2019-07-30 16:00:00 26.5 19 Sur 60 Sur 0 -- -- 71
2019-07-30 15:00:00 26.4 23 Sur 32 Sur 0 -- -- 78
2019-07-30 14:00:00 26.9 18 Sur 24 Sur 0 -- -- 79
2019-07-30 13:00:00 26.9 17 Sur 22 Sur 0 -- -- 80
2019-07-30 12:00:00 27.2 17 Sur 24 Sur 0 -- -- 74
2019-07-30 11:00:00 27.3 12 Sur 16 Sur 0 -- -- 79
2019-07-30 10:00:00 27.2 8 Sudeste 12 Sur 0 -- -- 81
2019-07-30 09:00:00 26.4 6 Este 10 Este 0 -- -- 78
2019-07-30 08:00:00 24.6 3 Noroeste 10 Oeste 0 -- -- 88
2019-07-30 07:00:00 24.2 0 Calma 4 Este 0 -- -- 88
2019-07-30 06:00:00 24.3 0 Calma 6 Nordeste 0 -- -- 87
2019-07-30 05:00:00 24.3 0 Calma 7 Norte 0 -- -- 87
2019-07-30 04:00:00 24.5 5 Norte 8 Norte 0 -- -- 88
2019-07-30 03:00:00 24.9 4 Oeste 9 Sudoeste 0 -- -- 89
2019-07-30 02:00:00 25.1 6 Sudoeste 14 Sudoeste 0 -- -- 90
2019-07-30 01:00:00 25.1 6 Sudoeste 9 Sudoeste 0 -- -- 89
2019-07-30 00:00:00 25.2 6 Oeste 18 Sudoeste 0 -- -- 87
2019-07-29 23:00:00 25.5 10 Sudoeste 17 Oeste 0 -- -- 83
2019-07-29 22:00:00 25.7 10 Oeste 24 Oeste 0 -- -- 82
2019-07-29 21:00:00 26 13 Sudoeste 24 Sudoeste 0 -- -- 83
2019-07-29 20:00:00 26.4 18 Sudoeste 28 Sudoeste 0 -- -- 84
2019-07-29 19:00:00 25.8 22 Sudoeste 30 Sur 0 -- -- 88
2019-07-29 18:00:00 26.2 26 Sudoeste 34 Sudoeste 0 -- -- 87
2019-07-29 17:00:00 26 24 Sudoeste 36 Sudoeste 0 -- -- 84
2019-07-29 16:00:00 26.5 28 Sudoeste 38 Sudoeste 0 -- -- 80
2019-07-29 15:00:00 26 29 Sur 37 Sur 0 -- -- 81
2019-07-29 14:00:00 26.2 24 Sudoeste 31 Sudoeste 0 -- -- 76
2019-07-29 13:00:00 26.3 15 Sur 21 Sur 0 -- -- 75
2019-07-29 12:00:00 26.5 13 Sur 21 Sur 0 -- -- 72
2019-07-29 11:00:00 26.1 13 Sudeste 18 Sudeste 0 -- -- 70
2019-07-29 10:00:00 25.5 7 Este 13 Sudeste 0 -- -- 67
2019-07-29 09:00:00 24.8 5 Norte 14 Norte 0 -- -- 66
2019-07-29 08:00:00 22.1 9 Norte 14 Norte 0 -- -- 72
2019-07-29 07:00:00 21 9 Norte 15 Norte 0 -- -- 75
2019-07-29 06:00:00 21 8 Norte 13 Norte 0 -- -- 74
2019-07-29 05:00:00 21.3 9 Norte 13 Norte 0 -- -- 73
2019-07-29 04:00:00 21.6 6 Norte 11 Norte 0 -- -- 73
2019-07-29 03:00:00 21.9 6 Norte 12 Norte 0 -- -- 71
2019-07-29 02:00:00 22.7 7 Norte 10 Norte 0 -- -- 69
2019-07-29 01:00:00 23.6 0 Calma 8 Oeste 0 -- -- 67
2019-07-29 00:00:00 23.9 4 Oeste 10 Sudoeste 0 -- -- 65
2019-07-28 23:00:00 24 7 Oeste 19 Oeste 0 -- -- 65
2019-07-28 22:00:00 24.4 10 Sudoeste 19 Sudoeste 0 -- -- 64
2019-07-28 21:00:00 24.8 13 Sur 26 Sudoeste 0 -- -- 61
2019-07-28 20:00:00 25.2 17 Sudoeste 21 Sur 0 -- -- 56
2019-07-28 19:00:00 25.9 14 Sur 22 Sudeste 0 -- -- 55
2019-07-28 18:00:00 25.8 16 Sur 23 Sur 0 -- -- 56
2019-07-28 17:00:00 25.7 13 Sur 19 Sudoeste 0 -- -- 54
2019-07-28 16:00:00 26.2 11 Sur 18 Sur 0 -- -- 51
2019-07-28 15:00:00 25.4 12 Sudeste 23 Sudeste 0 -- -- 52
2019-07-28 14:00:00 25.2 13 Sudeste 24 Este 0 -- -- 53
2019-07-28 13:00:00 24.9 15 Sudeste 25 Este 0 -- -- 52
2019-07-28 12:00:00 24.8 22 Sudeste 36 Sudeste 0 -- -- 51
2019-07-28 11:00:00 24.5 9 Noroeste 19 Sur 0 -- -- 43
2019-07-28 10:00:00 23.9 3 Noroeste 24 Norte 0 -- -- 47
2019-07-28 09:00:00 21.8 8 Norte 22 Noroeste 0 -- -- 50
2019-07-28 08:00:00 20.5 15 Noroeste 31 Noroeste 0 -- -- 54
2019-07-28 07:00:00 19.7 8 Noroeste 20 Sudoeste 0 -- -- 57
2019-07-28 06:00:00 19.7 9 Oeste 22 Oeste 0 -- -- 58
2019-07-28 05:00:00 20.4 13 Noroeste 19 Noroeste 0 -- -- 59
2019-07-28 04:00:00 20.9 8 Oeste 15 Oeste 0 -- -- 62
2019-07-28 03:00:00 20.5 3 Nordeste 13 Este 0 -- -- 89
2019-07-28 02:00:00 21 5 Este 21 Este 0 -- -- 91
2019-07-28 01:00:00 20.9 16 Este 36 Este 0 -- -- 91
2019-07-28 00:00:00 20.7 33 Este 43 Este 0 -- -- 89
2019-07-27 23:00:00 23.2 25 Sudeste 32 Sudeste 0 -- -- 88
2019-07-26 12:00:00 29.4 9 Sudeste 14 Sudeste 0 -- -- 73
2019-07-26 11:00:00 28.8 5 Sudeste 11 Este 0 -- -- 69
2019-07-26 10:00:00 28.3 6 Este 12 Este 0 -- -- 66
2019-07-26 09:00:00 27.1 3 Nordeste 12 Norte 0 -- -- 58
2019-07-26 08:00:00 25.5 4 Norte 10 Norte 0 -- -- 67
2019-07-26 07:00:00 24.5 6 Norte 11 Norte 0 -- -- 71
2019-07-26 06:00:00 24.3 7 Norte 10 Norte 0 -- -- 70
2019-07-26 05:00:00 25 5 Norte 9 Norte 0 -- -- 65
2019-07-26 04:00:00 25.3 5 Norte 8 Norte 0 -- -- 61
2019-07-26 03:00:00 25.9 0 Calma 7 Oeste 0 -- -- 75
2019-07-26 02:00:00 26 5 Oeste 10 Oeste 0 -- -- 83
2019-07-26 01:00:00 26 4 Sudoeste 10 Sur 0 -- -- 88
2019-07-26 00:00:00 25.8 5 Oeste 12 Sudoeste 0 -- -- 88
2019-07-25 23:00:00 26.1 7 Sur 12 Sur 0 -- -- 91
2019-07-25 22:00:00 26.3 8 Sur 10 Sur 0 -- -- 91
2019-07-25 21:00:00 27.1 6 Sur 10 Sur 0 -- -- 89
2019-07-25 20:00:00 27.9 7 Sur 12 Sur 0 -- -- 87
2019-07-25 19:00:00 28.9 9 Sudeste 16 Sudeste 0 -- -- 84
2019-07-25 18:00:00 29 10 Sudeste 19 Sudeste 0 -- -- 83
2019-07-25 17:00:00 28.9 11 Sur 17 Sudeste 0 -- -- 82
2019-07-25 16:00:00 28.6 12 Sur 21 Sudeste 0 -- -- 81
2019-07-25 15:00:00 29 12 Sudeste 21 Sudeste 0 -- -- 79
2019-07-25 14:00:00 29.2 12 Sudeste 19 Este 0 -- -- 78
2019-07-25 13:00:00 28.8 11 Sudeste 19 Sudeste 0 -- -- 79
2019-07-25 12:00:00 28.4 10 Sudeste 15 Sudeste 0 -- -- 79
2019-07-25 11:00:00 28 8 Sudeste 12 Sudeste 0 -- -- 79
2019-07-25 10:00:00 27.5 6 Este 12 Este 0 -- -- 75
2019-07-25 09:00:00 27.2 4 Este 7 Este 0 -- -- 79
2019-07-25 08:00:00 25.4 3 Norte 8 Norte 0 -- -- 78
2019-07-25 07:00:00 23.6 5 Norte 11 Norte 0 -- -- 82
2019-07-25 06:00:00 24.1 2 Nordeste 5 Nordeste 0 -- -- 87
2019-07-25 05:00:00 24.3 4 Nordeste 8 Este 0 -- -- 88
2019-07-25 04:00:00 24.1 5 Este 10 Este 0 -- -- 93
2019-07-25 03:00:00 24.9 3 Sur 6 Sur 0 -- -- 93
2019-07-25 02:00:00 24.9 3 Sudeste 5 Este 0 -- -- 92
2019-07-25 01:00:00 25.1 0 Calma 7 Sudeste 0 -- -- 91
2019-07-25 00:00:00 25.4 3 Sudeste 6 Sudeste 0 -- -- 91
2019-07-24 23:00:00 25.5 4 Sudeste 8 Sudeste 0 -- -- 91
2019-07-24 22:00:00 26 5 Sudeste 11 Sudeste 0 -- -- 91
2019-07-24 21:00:00 26.2 5 Sur 10 Sur 0 -- -- 90
2019-07-24 20:00:00 27.3 7 Sur 14 Sur 0 -- -- 87
2019-07-24 19:00:00 28 9 Sur 19 Sur 0 -- -- 83
2019-07-24 18:00:00 28.6 11 Sur 18 Sudeste 0 -- -- 78
2019-07-24 17:00:00 28.9 12 Sudeste 20 Sudeste 0 -- -- 76
2019-07-24 16:00:00 28.7 12 Sudeste 22 Sudeste 0 -- -- 71
2019-07-24 15:00:00 28.3 14 Sudeste 19 Sudeste 0 -- -- 79
2019-07-24 14:00:00 29.2 13 Sudeste 17 Sudeste 0 -- -- 76
2019-07-24 13:00:00 28.5 15 Sudeste 20 Este 0 -- -- 79
2019-07-24 12:00:00 28.7 15 Sudeste 17 Sudeste 0 -- -- 79
2019-07-24 11:00:00 28.3 11 Sudeste 14 Sudeste 0 -- -- 81
2019-07-24 10:00:00 28.1 8 Sudeste 14 Este 0 -- -- 76
2019-07-24 09:00:00 25.7 8 Nordeste 13 Nordeste 0 -- -- 76
2019-07-24 08:00:00 24.9 7 Norte 15 Norte 0 -- -- 74
2019-07-24 07:00:00 23.5 9 Norte 14 Norte 0 -- -- 76
2019-07-24 06:00:00 24.6 3 Norte 12 Oeste 0 -- -- 86
2019-07-24 05:00:00 25 4 Sudoeste 12 Sudoeste 0 -- -- 86
2019-07-24 04:00:00 25.4 5 Oeste 12 Oeste 0 -- -- 85
2019-07-24 03:00:00 25.4 7 Oeste 13 Oeste 0 -- -- 88
2019-07-24 02:00:00 25 6 Sudoeste 8 Sudoeste 0 -- -- 93
2019-07-24 01:00:00 25.2 3 Sudeste 6 Este 0 -- -- 93
2019-07-24 00:00:00 25.4 4 Este 7 Este 0 -- -- 93
2019-07-23 23:00:00 25.8 4 Sudeste 6 Sudeste 0 -- -- 93
2019-07-23 22:00:00 26 5 Este 8 Este 0 -- -- 92
2019-07-23 21:00:00 26.5 6 Este 13 Sur 0 -- -- 91
2019-07-23 20:00:00 27.2 10 Sur 22 Sur 0 -- -- 90
2019-07-23 19:00:00 26.9 18 Sur 26 Sur 0 -- -- 87
2019-07-23 18:00:00 27.5 21 Sur 28 Sur 0 -- -- 86
2019-07-23 17:00:00 28.9 21 Sudoeste 34 Sur 0 -- -- 69
2019-07-23 16:00:00 27.3 25 Sur 33 Sudoeste 0 -- -- 78
2019-07-23 15:00:00 27.5 23 Sudoeste 32 Sudoeste 0 -- -- 79
2019-07-23 14:00:00 27.4 18 Sur 23 Sur 0 -- -- 84
2019-07-23 13:00:00 27.3 17 Sur 24 Sur 0 -- -- 80
2019-07-23 12:00:00 27.8 19 Sudoeste 24 Sur 0 -- -- 74
2019-07-23 11:00:00 29.2 9 Sudeste 11 Sudeste 0 -- -- 63
2019-07-23 10:00:00 28.5 7 Sudeste 10 Sudeste 0 -- -- 57
2019-07-23 09:00:00 26.6 8 Este 10 Este 0 -- -- 61
2019-07-23 08:00:00 25.3 5 Norte 8 Nordeste 0 -- -- 58
2019-07-23 07:00:00 24.7 3 Oeste 9 Oeste 0 -- -- 57
2019-07-23 06:00:00 24.4 0 Calma 9 Oeste 0 -- -- 66
2019-07-23 05:00:00 24.5 2 Noroeste 8 Oeste 0 -- -- 75
2019-07-23 04:00:00 24.8 0 Calma 3 Sudeste 0 -- -- 86
2019-07-23 03:00:00 25.2 0 Calma 4 Este 0 -- -- 82
2019-07-23 02:00:00 25.5 3 Este 5 Este 0 -- -- 85
2019-07-23 01:00:00 26.2 5 Oeste 19 Oeste 0 -- -- 82
2019-07-23 00:00:00 25.6 6 Oeste 12 Oeste 0 -- -- 89
2019-07-22 23:00:00 25.2 3 Sur 8 Sudeste 0 -- -- 91
2019-07-22 22:00:00 26.2 4 Sur 10 Sudeste 0 -- -- 91
2019-07-22 21:00:00 26.9 5 Sur 11 Sudeste 0 -- -- 88
2019-07-22 20:00:00 27.7 7 Sur 13 Sudeste 0 -- -- 85
2019-07-22 19:00:00 28 10 Sur 17 Sudeste 0 -- -- 84
2019-07-22 18:00:00 28.3 10 Sur 18 Sur 0 -- -- 81
2019-07-22 17:00:00 28.3 13 Sur 17 Sudeste 0 -- -- 83
2019-07-22 16:00:00 28.8 11 Sur 19 Sudeste 0 -- -- 81
2019-07-22 15:00:00 28.9 10 Sur 17 Sudeste 0 -- -- 75
2019-07-22 14:00:00 29.1 9 Sudeste 14 Sudeste 0 -- -- 74
2019-07-22 13:00:00 28.5 9 Sudeste 15 Sudeste 0 -- -- 74
2019-07-22 12:00:00 27.7 10 Sudeste 18 Sudeste 0 -- -- 79
2019-07-22 11:00:00 27.5 10 Sudeste 15 Sudeste 0 -- -- 77
2019-07-22 10:00:00 27.7 4 Sudeste 9 Sudeste 0 -- -- 75
2019-07-22 09:00:00 26.4 3 Este 6 Sudeste 0 -- -- 66
2019-07-22 08:00:00 24.3 3 Norte 8 Norte 0 -- -- 73
2019-07-22 07:00:00 23.5 0 Calma 9 Norte 0 -- -- 76
2019-07-22 06:00:00 23.5 4 Norte 7 Norte 0 -- -- 76
2019-07-22 05:00:00 23.8 4 Norte 9 Norte 0 -- -- 78
2019-07-22 04:00:00 24.3 4 Nordeste 8 Nordeste 0 -- -- 81
2019-07-22 03:00:00 24.1 4 Este 7 Este 0 -- -- 86
2019-07-22 02:00:00 24.7 4 Sudoeste 10 Sudoeste 0 -- -- 87
2019-07-22 01:00:00 24.6 4 Sudoeste 6 Este 0 -- -- 90
2019-07-22 00:00:00 24.8 4 Este 7 Este 0 -- -- 89
2019-07-21 23:00:00 24.7 5 Este 9 Este 0 -- -- 89
2019-07-21 22:00:00 25.2 5 Sudeste 9 Este 0 -- -- 87
2019-07-21 21:00:00 25.9 7 Sudeste 11 Sudeste 0 -- -- 85
2019-07-21 20:00:00 27 6 Sudeste 11 Sudeste 0 -- -- 78
2019-07-21 19:00:00 27.8 7 Sudeste 12 Sudeste 0 -- -- 74
2019-07-21 18:00:00 27.9 9 Sudeste 13 Sudeste 0 -- -- 76
2019-07-21 17:00:00 27.8 8 Sudeste 12 Este 0 -- -- 77
2019-07-21 16:00:00 28.1 8 Este 14 Este 0 -- -- 77
2019-07-21 15:00:00 27.7 9 Este 16 Sudeste 0 -- -- 76
2019-07-21 14:00:00 27.4 10 Este 14 Este 0 -- -- 75
2019-07-21 13:00:00 27.1 9 Sudeste 16 Este 0 -- -- 77
2019-07-21 12:00:00 25.9 14 Este 22 Este 0 -- -- 84
2019-07-21 11:00:00 25.6 16 Este 21 Este 0 -- -- 84
2019-07-21 10:00:00 25.1 16 Este 21 Este 0 -- -- 89
2019-07-21 09:00:00 25 10 Este 19 Este 0 -- -- 83
2019-07-21 08:00:00 24.2 5 Norte 12 Norte 0 -- -- 80
2019-07-21 07:00:00 22.8 7 Norte 11 Nordeste 0 -- -- 85
2019-07-21 06:00:00 22.9 6 Norte 12 Norte 0 -- -- 86
2019-07-21 05:00:00 23.2 7 Norte 11 Norte 0 -- -- 87
2019-07-21 04:00:00 23.5 7 Norte 10 Nordeste 0 -- -- 87
2019-07-21 03:00:00 23.9 6 Norte 14 Este 0 -- -- 89
2019-07-21 02:00:00 24.1 8 Nordeste 14 Este 0 -- -- 92
2019-07-21 01:00:00 24.5 12 Este 18 Este 0 -- -- 92
2019-07-21 00:00:00 24.6 15 Este 17 Este 0 -- -- 92